createdAt,value
2022-09-30T00:01:27.471Z,97612.03
2022-09-30T00:03:54.666Z,97626.28
2022-09-30T00:06:21.570Z,97628.03
2022-09-30T00:08:48.155Z,97622.28
2022-09-30T00:11:17.826Z,97628.53
2022-09-30T00:13:46.536Z,97625.25
2022-09-30T00:16:15.164Z,97638.19
2022-09-30T00:18:43.149Z,97631.31
2022-09-30T00:21:11.449Z,97632.94
2022-09-30T00:23:39.036Z,97633.91
2022-09-30T00:26:12.861Z,97632.34
2022-09-30T00:28:40.682Z,97633.06
2022-09-30T00:31:11.332Z,97628.56
2022-09-30T00:33:38.150Z,97632.22
2022-09-30T00:36:05.647Z,97640.00
2022-09-30T00:38:32.918Z,97626.84
2022-09-30T00:41:01.870Z,97637.16
2022-09-30T00:43:53.390Z,97637.25
2022-09-30T00:46:40.930Z,97638.25
2022-09-30T00:49:19.021Z,97641.97
2022-09-30T00:51:52.295Z,97641.41
2022-09-30T00:54:26.277Z,97651.91
2022-09-30T00:56:56.877Z,97653.63
2022-09-30T00:59:27.485Z,97653.88
2022-09-30T01:01:54.972Z,97656.59
2022-09-30T01:04:24.691Z,97653.13
2022-09-30T01:06:51.590Z,97647.28
2022-09-30T01:09:18.968Z,97648.22
2022-09-30T01:11:46.540Z,97649.34
2022-09-30T01:14:19.982Z,97651.16
2022-09-30T01:17:01.411Z,97654.56
2022-09-30T01:19:31.105Z,97655.47
2022-09-30T01:22:25.700Z,97661.56
2022-09-30T01:25:17.478Z,97662.44
2022-09-30T01:27:59.268Z,97656.41
2022-09-30T01:30:44.842Z,97663.97
2022-09-30T01:33:20.815Z,97661.31
2022-09-30T01:36:02.214Z,97669.91
2022-09-30T01:38:37.423Z,97663.84
2022-09-30T01:41:15.750Z,97663.03
2022-09-30T01:43:54.418Z,97664.88
2022-09-30T01:46:38.612Z,97665.06
2022-09-30T01:49:18.212Z,97663.53
2022-09-30T01:51:55.695Z,97663.63
2022-09-30T01:54:40.335Z,97658.53
2022-09-30T01:57:13.269Z,97662.63
2022-09-30T01:59:48.503Z,97665.00
2022-09-30T02:02:20.894Z,97664.91
2022-09-30T02:04:54.036Z,97664.88
2022-09-30T02:07:26.900Z,97667.47
2022-09-30T02:10:00.216Z,97669.22
2022-09-30T02:12:30.290Z,97675.41
2022-09-30T02:15:23.237Z,97668.66
2022-09-30T02:18:02.693Z,97670.50
2022-09-30T02:20:36.889Z,97670.47
2022-09-30T02:23:15.979Z,97678.03
2022-09-30T02:25:50.514Z,97683.25
2022-09-30T02:28:27.209Z,97690.19
2022-09-30T02:31:00.064Z,97693.75
2022-09-30T02:33:38.278Z,97694.69
2022-09-30T02:36:21.076Z,97686.03
2022-09-30T02:38:55.531Z,97696.53
2022-09-30T02:41:26.517Z,97694.78
2022-09-30T02:43:55.676Z,97691.13
2022-09-30T02:46:28.171Z,97698.06
2022-09-30T02:49:20.331Z,97690.31
2022-09-30T02:52:05.539Z,97695.56
2022-09-30T02:54:49.143Z,97699.13
2022-09-30T02:57:47.175Z,97708.78
2022-09-30T03:00:14.503Z,97703.63
2022-09-30T03:02:42.019Z,97708.84
2022-09-30T03:05:09.936Z,97700.28
2022-09-30T03:07:37.811Z,97706.56
2022-09-30T03:10:16.274Z,97706.47
2022-09-30T03:13:00.823Z,97705.84
2022-09-30T03:16:01.374Z,97706.00
2022-09-30T03:19:08.534Z,97702.50
2022-09-30T03:21:44.347Z,97714.53
2022-09-30T03:24:29.213Z,97711.88
2022-09-30T03:27:12.309Z,97714.59
2022-09-30T03:29:45.336Z,97718.13
2022-09-30T03:32:27.385Z,97721.53
2022-09-30T03:35:10.602Z,97723.19
2022-09-30T03:37:51.601Z,97715.25
2022-09-30T03:40:21.202Z,97728.44
2022-09-30T03:42:58.148Z,97724.00
2022-09-30T03:45:37.163Z,97725.81
2022-09-30T03:48:08.938Z,97730.13
2022-09-30T03:50:37.997Z,97726.75
2022-09-30T03:53:11.005Z,97726.69
2022-09-30T03:55:47.902Z,97738.94
2022-09-30T03:58:15.696Z,97739.72
2022-09-30T04:00:48.693Z,97745.81
2022-09-30T04:03:16.024Z,97744.09
2022-09-30T04:05:42.884Z,97744.97
2022-09-30T04:08:10.122Z,97745.88
2022-09-30T04:10:36.779Z,97736.31
2022-09-30T04:13:03.483Z,97746.00
2022-09-30T04:15:30.042Z,97753.00
2022-09-30T04:17:56.618Z,97753.91
2022-09-30T04:20:23.189Z,97758.38
2022-09-30T04:22:49.805Z,97748.88
2022-09-30T04:25:16.562Z,97760.28
2022-09-30T04:27:43.185Z,97769.00
2022-09-30T04:30:10.394Z,97767.25
2022-09-30T04:32:36.971Z,97777.56
2022-09-30T04:35:04.036Z,97774.13
2022-09-30T04:37:30.708Z,97770.63
2022-09-30T04:39:57.775Z,97765.41
2022-09-30T04:42:24.457Z,97769.59
2022-09-30T04:44:51.270Z,97766.97
2022-09-30T04:47:17.837Z,97770.41
2022-09-30T04:49:44.368Z,97769.47
2022-09-30T04:52:10.943Z,97771.22
2022-09-30T04:54:37.526Z,97769.44
2022-09-30T04:57:04.186Z,97773.78
2022-09-30T04:59:31.074Z,97769.38
2022-09-30T05:01:57.718Z,97776.47
2022-09-30T05:04:24.355Z,97777.38
2022-09-30T05:06:51.035Z,97772.28
2022-09-30T05:09:17.641Z,97773.94
2022-09-30T05:11:44.267Z,97780.00
2022-09-30T05:14:10.857Z,97776.66
2022-09-30T05:16:37.780Z,97784.53
2022-09-30T05:19:04.559Z,97785.41
2022-09-30T05:21:31.195Z,97790.53
2022-09-30T05:23:58.623Z,97787.13
2022-09-30T05:26:25.238Z,97791.34
2022-09-30T05:28:51.894Z,97798.31
2022-09-30T05:31:21.070Z,97795.63
2022-09-30T05:33:48.049Z,97796.44
2022-09-30T05:36:16.366Z,97799.94
2022-09-30T05:38:43.102Z,97811.09
2022-09-30T05:41:11.679Z,97802.47
2022-09-30T05:43:40.073Z,97806.81
2022-09-30T05:46:06.888Z,97812.00
2022-09-30T05:48:34.757Z,97810.34
2022-09-30T05:51:01.812Z,97808.56
2022-09-30T05:53:29.511Z,97825.06
2022-09-30T05:55:56.137Z,97820.69
2022-09-30T05:58:23.150Z,97825.94
2022-09-30T06:00:50.444Z,97836.31
2022-09-30T06:03:18.806Z,97837.94
2022-09-30T06:05:46.042Z,97838.78
2022-09-30T06:08:13.820Z,97845.75
2022-09-30T06:10:42.489Z,97850.00
2022-09-30T06:13:09.158Z,97852.56
2022-09-30T06:15:38.153Z,97857.72
2022-09-30T06:18:05.157Z,97850.63
2022-09-30T06:20:32.348Z,97851.31
2022-09-30T06:23:00.611Z,97855.47
2022-09-30T06:25:31.339Z,97863.03
2022-09-30T06:27:58.608Z,97870.56
2022-09-30T06:30:25.509Z,97860.81
2022-09-30T06:32:54.210Z,97876.19
2022-09-30T06:35:24.155Z,97879.50
2022-09-30T06:37:51.962Z,97881.00
2022-09-30T06:40:21.180Z,97884.25
2022-09-30T06:42:48.651Z,97886.63
2022-09-30T06:45:26.403Z,97892.34
2022-09-30T06:48:00.566Z,97896.16
2022-09-30T06:50:27.740Z,97892.94
2022-09-30T06:52:59.322Z,97901.13
2022-09-30T06:55:27.284Z,97897.72
2022-09-30T06:57:55.479Z,97913.63
2022-09-30T07:00:22.959Z,97910.22
2022-09-30T07:02:49.923Z,97912.81
2022-09-30T07:05:17.538Z,97919.84
2022-09-30T07:07:44.247Z,97924.75
2022-09-30T07:10:11.533Z,97938.34
2022-09-30T07:12:38.130Z,97934.63
2022-09-30T07:15:05.151Z,97931.94
2022-09-30T07:17:32.006Z,97934.53
2022-09-30T07:19:59.568Z,97941.63
2022-09-30T07:22:30.128Z,97937.03
2022-09-30T07:24:58.433Z,97941.38
2022-09-30T07:27:29.090Z,97938.50
2022-09-30T07:30:17.093Z,97939.16
2022-09-30T07:32:43.290Z,97937.47
2022-09-30T07:35:09.870Z,97945.28
2022-09-30T07:37:36.529Z,97939.88
2022-09-30T07:40:07.817Z,97938.81
2022-09-30T07:42:39.392Z,97937.84
2022-09-30T07:45:06.409Z,97938.69
2022-09-30T07:47:33.042Z,97934.75
2022-09-30T07:50:00.590Z,97931.38
2022-09-30T07:52:27.353Z,97937.41
2022-09-30T07:54:53.954Z,97939.00
2022-09-30T07:57:21.754Z,97941.84
2022-09-30T07:59:48.304Z,97943.00
2022-09-30T08:02:17.509Z,97951.97
2022-09-30T08:04:44.943Z,97956.84
2022-09-30T08:07:13.317Z,97950.09
2022-09-30T08:09:39.976Z,97954.41
2022-09-30T08:12:06.624Z,97957.22
2022-09-30T08:14:33.323Z,97961.97
2022-09-30T08:17:00.735Z,97956.78
2022-09-30T08:19:29.464Z,97954.59
2022-09-30T08:21:56.633Z,97956.69
2022-09-30T08:24:24.665Z,97958.38
2022-09-30T08:26:52.638Z,97958.59
2022-09-30T08:29:35.777Z,97968.47
2022-09-30T08:32:06.268Z,97970.47
2022-09-30T08:34:35.817Z,97964.03
2022-09-30T08:37:08.365Z,97965.16
2022-09-30T08:39:37.025Z,97961.16
2022-09-30T08:42:25.442Z,97967.06
2022-09-30T08:45:10.566Z,97957.97
2022-09-30T08:47:43.479Z,97965.16
2022-09-30T08:50:32.691Z,97960.03
2022-09-30T08:53:27.475Z,97962.47
2022-09-30T08:55:58.107Z,97959.44
2022-09-30T08:58:43.968Z,97961.78
2022-09-30T09:01:19.925Z,97969.31
2022-09-30T09:03:47.047Z,97967.06
2022-09-30T09:06:54.909Z,97971.75
2022-09-30T09:09:35.327Z,97968.81
2022-09-30T09:12:12.357Z,97971.41
2022-09-30T09:15:09.289Z,97972.03
2022-09-30T09:18:18.247Z,97974.31
2022-09-30T09:20:56.332Z,97960.75
2022-09-30T09:23:23.922Z,97963.31
2022-09-30T09:25:54.179Z,97971.66
2022-09-30T09:28:29.652Z,97972.19
2022-09-30T09:30:59.186Z,97973.66
2022-09-30T09:33:32.334Z,97968.59
2022-09-30T09:36:14.075Z,97966.38
2022-09-30T09:38:58.308Z,97966.91
2022-09-30T09:41:33.453Z,97958.25
2022-09-30T09:44:19.344Z,97959.53
2022-09-30T09:46:55.649Z,97964.06
2022-09-30T09:49:29.285Z,97957.47
2022-09-30T09:52:13.821Z,97962.53
2022-09-30T09:54:45.933Z,97952.63
2022-09-30T09:57:25.732Z,97953.66
2022-09-30T09:59:58.568Z,97955.09
2022-09-30T10:02:31.738Z,97950.78
2022-09-30T10:05:03.882Z,97955.38
2022-09-30T10:07:34.384Z,97945.38
2022-09-30T10:10:23.523Z,97941.03
2022-09-30T10:12:50.731Z,97941.91
2022-09-30T10:15:26.507Z,97949.16
2022-09-30T10:17:58.313Z,97941.94
2022-09-30T10:20:32.096Z,97932.59
2022-09-30T10:23:19.541Z,97933.63
2022-09-30T10:26:13.989Z,97945.34
2022-09-30T10:28:52.479Z,97944.31
2022-09-30T10:31:50.950Z,97940.56
2022-09-30T10:34:23.527Z,97939.19
2022-09-30T10:36:50.927Z,97930.88
2022-09-30T10:39:24.098Z,97940.00
2022-09-30T10:42:08.711Z,97929.59
2022-09-30T10:44:43.708Z,97935.19
2022-09-30T10:47:15.518Z,97928.16
2022-09-30T10:49:56.872Z,97920.28
2022-09-30T10:52:34.716Z,97916.19
2022-09-30T10:55:13.272Z,97906.22
2022-09-30T10:57:42.444Z,97909.06
2022-09-30T11:00:19.613Z,97915.91
2022-09-30T11:03:03.834Z,97924.50
2022-09-30T11:05:35.453Z,97911.19
2022-09-30T11:08:05.135Z,97913.88
2022-09-30T11:10:39.614Z,97921.44
2022-09-30T11:13:18.158Z,97921.81
2022-09-30T11:16:00.890Z,97922.47
2022-09-30T11:18:40.960Z,97925.88
2022-09-30T11:21:22.221Z,97921.81
2022-09-30T11:24:14.486Z,97922.66
2022-09-30T11:26:59.046Z,97924.53
2022-09-30T11:29:50.923Z,97918.56
2022-09-30T11:32:25.781Z,97915.53
2022-09-30T11:35:07.641Z,97908.06
2022-09-30T11:37:52.973Z,97910.09
2022-09-30T11:40:34.805Z,97912.59
2022-09-30T11:43:13.777Z,97913.09
2022-09-30T11:46:11.290Z,97912.56
2022-09-30T11:49:00.129Z,97914.41
2022-09-30T11:51:29.720Z,97905.00
2022-09-30T11:54:14.965Z,97907.66
2022-09-30T11:56:54.330Z,97903.31
2022-09-30T11:59:34.405Z,97900.66
2022-09-30T12:02:04.479Z,97909.78
2022-09-30T12:04:37.019Z,97904.06
2022-09-30T12:07:22.685Z,97905.50
2022-09-30T12:10:01.401Z,97905.41
2022-09-30T12:12:28.035Z,97909.59
2022-09-30T12:15:05.187Z,97911.13
2022-09-30T12:17:43.183Z,97914.78
2022-09-30T12:20:18.811Z,97921.19
2022-09-30T12:22:48.061Z,97908.00
2022-09-30T12:25:22.334Z,97912.72
2022-09-30T12:28:24.021Z,97915.91
2022-09-30T12:31:04.103Z,97915.75
2022-09-30T12:33:46.333Z,97905.38
2022-09-30T12:36:19.702Z,97906.34
2022-09-30T12:38:46.191Z,97915.91
2022-09-30T12:41:27.108Z,97907.88
2022-09-30T12:44:12.342Z,97916.44
2022-09-30T12:46:50.000Z,97909.09
2022-09-30T12:49:23.156Z,97909.25
2022-09-30T12:51:55.958Z,97922.59
2022-09-30T12:54:33.812Z,97924.50
2022-09-30T12:57:04.429Z,97912.56
2022-09-30T12:59:34.939Z,97914.69
2022-09-30T13:02:04.449Z,97918.13
2022-09-30T13:04:33.492Z,97921.38
2022-09-30T13:06:59.991Z,97924.88
2022-09-30T13:09:37.379Z,97922.81
2022-09-30T13:12:03.962Z,97925.50
2022-09-30T13:14:44.052Z,97914.22
2022-09-30T13:17:10.567Z,97913.53
2022-09-30T13:19:40.490Z,97908.81
2022-09-30T13:22:19.878Z,97906.94
2022-09-30T13:25:07.688Z,97913.66
2022-09-30T13:27:40.422Z,97922.00
2022-09-30T13:30:16.237Z,97918.09
2022-09-30T13:32:48.147Z,97912.72
2022-09-30T13:35:51.468Z,97921.38
2022-09-30T13:38:18.634Z,97919.44
2022-09-30T13:41:02.923Z,97921.16
2022-09-30T13:44:03.669Z,97921.22
2022-09-30T13:46:43.509Z,97925.94
2022-09-30T13:49:25.005Z,97930.34
2022-09-30T13:51:53.585Z,97926.41
2022-09-30T13:54:46.203Z,97928.69
2022-09-30T13:57:24.198Z,97931.63
2022-09-30T14:00:08.734Z,97932.09
2022-09-30T14:03:04.151Z,97931.53
2022-09-30T14:05:40.293Z,97933.03
2022-09-30T14:08:19.406Z,97928.69
2022-09-30T14:11:06.006Z,97933.41
2022-09-30T14:13:38.552Z,97935.66
2022-09-30T14:16:14.214Z,97930.69
2022-09-30T14:19:06.343Z,97941.34
2022-09-30T14:21:47.444Z,97937.44
2022-09-30T14:24:24.122Z,97945.53
2022-09-30T14:27:02.859Z,97937.50
2022-09-30T14:29:44.031Z,97938.97
2022-09-30T14:32:26.319Z,97930.16
2022-09-30T14:34:53.688Z,97932.59
2022-09-30T14:37:32.173Z,97932.34
2022-09-30T14:39:59.563Z,97928.75
2022-09-30T14:42:36.919Z,97927.72
2022-09-30T14:45:06.854Z,97922.63
2022-09-30T14:47:46.227Z,97923.38
2022-09-30T14:50:24.521Z,97917.66
2022-09-30T14:52:57.157Z,97924.09
2022-09-30T14:55:30.585Z,97919.44
2022-09-30T14:58:26.112Z,97932.56
2022-09-30T15:01:15.519Z,97925.78
2022-09-30T15:03:47.789Z,97923.91
2022-09-30T15:06:27.602Z,97916.56
2022-09-30T15:09:06.805Z,97916.13
2022-09-30T15:11:38.801Z,97918.13
2022-09-30T15:14:20.569Z,97918.66
2022-09-30T15:16:50.320Z,97919.28
2022-09-30T15:19:37.018Z,97925.34
2022-09-30T15:22:07.159Z,97920.56
2022-09-30T15:24:36.639Z,97936.22
2022-09-30T15:27:04.058Z,97939.31
2022-09-30T15:29:30.838Z,97937.28
2022-09-30T15:32:04.939Z,97932.22
2022-09-30T15:34:31.818Z,97930.78
2022-09-30T15:37:06.837Z,97925.16
2022-09-30T15:39:57.314Z,97936.06
2022-09-30T15:42:53.682Z,97931.72
2022-09-30T15:45:35.495Z,97939.25
2022-09-30T15:48:25.873Z,97935.63
2022-09-30T15:50:55.963Z,97939.34
2022-09-30T15:53:25.955Z,97942.47
2022-09-30T15:55:58.028Z,97940.22
2022-09-30T15:58:41.614Z,97947.69
2022-09-30T16:01:11.113Z,97941.56
2022-09-30T16:03:37.883Z,97952.78
2022-09-30T16:06:13.896Z,97950.13
2022-09-30T16:08:47.154Z,97952.06
2022-09-30T16:11:20.807Z,97948.56
2022-09-30T16:13:48.782Z,97954.16
2022-09-30T16:16:24.640Z,97951.03
2022-09-30T16:18:53.698Z,97951.78
2022-09-30T16:21:30.777Z,97955.59
2022-09-30T16:23:57.833Z,97948.97
2022-09-30T16:26:30.134Z,97954.25
2022-09-30T16:28:56.969Z,97958.41
2022-09-30T16:31:24.354Z,97966.09
2022-09-30T16:33:51.060Z,97951.53
2022-09-30T16:36:17.739Z,97957.47
2022-09-30T16:38:44.426Z,97959.81
2022-09-30T16:41:14.342Z,97965.09
2022-09-30T16:43:41.144Z,97967.22
2022-09-30T16:46:09.178Z,97957.69
2022-09-30T16:48:36.153Z,97972.41
2022-09-30T16:51:15.431Z,97966.09
2022-09-30T16:53:42.077Z,97977.41
2022-09-30T16:56:19.666Z,97974.69
2022-09-30T16:58:47.252Z,97973.53
2022-09-30T17:01:19.866Z,97976.72
2022-09-30T17:03:46.889Z,97973.66
2022-09-30T17:06:17.943Z,97968.44
2022-09-30T17:08:45.365Z,97963.88
2022-09-30T17:11:12.037Z,97955.13
2022-09-30T17:13:38.783Z,97964.13
2022-09-30T17:16:05.604Z,97962.00
2022-09-30T17:18:32.257Z,97964.69
2022-09-30T17:21:00.802Z,97966.31
2022-09-30T17:23:27.551Z,97955.06
2022-09-30T17:25:54.898Z,97963.06
2022-09-30T17:28:22.233Z,97952.66
2022-09-30T17:30:50.347Z,97951.91
2022-09-30T17:33:19.888Z,97962.88
2022-09-30T17:35:59.576Z,97957.22
2022-09-30T17:38:26.394Z,97961.47
2022-09-30T17:41:11.488Z,97955.00
2022-09-30T17:43:38.059Z,97952.38
2022-09-30T17:46:05.535Z,97951.78
2022-09-30T17:48:33.031Z,97962.50
2022-09-30T17:51:00.184Z,97969.06
2022-09-30T17:53:29.397Z,97965.53
2022-09-30T17:56:04.839Z,97973.38
2022-09-30T17:58:31.433Z,97975.72
2022-09-30T18:00:59.447Z,97982.09
2022-09-30T18:03:28.242Z,97979.09
2022-09-30T18:05:58.934Z,97981.78
2022-09-30T18:08:26.372Z,97980.25
2022-09-30T18:10:52.964Z,97979.47
2022-09-30T18:13:19.654Z,97975.22
2022-09-30T18:15:46.912Z,97983.25
2022-09-30T18:18:14.110Z,97989.56
2022-09-30T18:20:45.485Z,97993.13
2022-09-30T18:23:12.512Z,97989.66
2022-09-30T18:25:41.316Z,97987.22
2022-09-30T18:28:09.477Z,97988.22
2022-09-30T18:30:37.480Z,97986.41
2022-09-30T18:33:07.170Z,97979.19
2022-09-30T18:35:38.616Z,97980.97
2022-09-30T18:38:06.887Z,97983.06
2022-09-30T18:40:34.145Z,97986.59
2022-09-30T18:43:05.404Z,97987.56
2022-09-30T18:45:36.807Z,97990.53
2022-09-30T18:48:04.048Z,98001.03
2022-09-30T18:50:31.473Z,97993.16
2022-09-30T18:52:58.455Z,98000.28
2022-09-30T18:55:25.464Z,97999.53
2022-09-30T18:57:56.133Z,97998.94
2022-09-30T19:00:23.058Z,98003.34
2022-09-30T19:02:52.022Z,98006.88
2022-09-30T19:05:18.863Z,98016.75
2022-09-30T19:07:45.406Z,98006.13
2022-09-30T19:10:13.358Z,98011.31
2022-09-30T19:12:44.652Z,98015.94
2022-09-30T19:15:16.002Z,98008.97
2022-09-30T19:17:43.745Z,98014.13
2022-09-30T19:20:11.282Z,98012.13
2022-09-30T19:22:37.909Z,98012.41
2022-09-30T19:25:11.239Z,98015.81
2022-09-30T19:27:41.013Z,98010.56
2022-09-30T19:30:09.896Z,98019.53
2022-09-30T19:32:36.797Z,98020.44
2022-09-30T19:35:12.079Z,98017.06
2022-09-30T19:37:42.989Z,98022.38
2022-09-30T19:40:20.361Z,98014.81
2022-09-30T19:42:49.660Z,98014.63
2022-09-30T19:45:17.019Z,98019.19
2022-09-30T19:47:44.618Z,98017.44
2022-09-30T19:50:11.119Z,98016.53
2022-09-30T19:52:46.308Z,98012.22
2022-09-30T19:55:20.256Z,98012.34
2022-09-30T19:57:46.916Z,98003.44
2022-09-30T20:00:13.584Z,97999.41
2022-09-30T20:02:40.231Z,98009.03
2022-09-30T20:05:07.658Z,98001.03
2022-09-30T20:07:35.264Z,97995.78
2022-09-30T20:10:01.936Z,97993.97
2022-09-30T20:12:29.268Z,97994.19
2022-09-30T20:15:14.730Z,97981.88
2022-09-30T20:17:41.366Z,97978.63
2022-09-30T20:20:27.677Z,97982.13
2022-09-30T20:22:54.245Z,97972.50
2022-09-30T20:25:20.934Z,97976.69
2022-09-30T20:27:51.351Z,97977.72
2022-09-30T20:30:19.654Z,97971.88
2022-09-30T20:32:46.267Z,97969.16
2022-09-30T20:35:13.044Z,97983.91
2022-09-30T20:37:40.943Z,97984.00
2022-09-30T20:40:09.709Z,97980.63
2022-09-30T20:42:38.505Z,97976.94
2022-09-30T20:45:06.770Z,97980.41
2022-09-30T20:47:33.430Z,97973.19
2022-09-30T20:50:00.259Z,97984.69
2022-09-30T20:52:28.879Z,97978.66
2022-09-30T20:55:00.451Z,97978.50
2022-09-30T20:57:31.610Z,97978.16
2022-09-30T21:00:00.094Z,97979.06
2022-09-30T21:02:28.097Z,97980.03
2022-09-30T21:04:55.584Z,97980.94
2022-09-30T21:07:22.278Z,97988.19
2022-09-30T21:09:48.842Z,97991.13
2022-09-30T21:12:17.011Z,97986.72
2022-09-30T21:14:43.887Z,97985.88
2022-09-30T21:17:10.871Z,97991.97
2022-09-30T21:19:38.130Z,97985.88
2022-09-30T21:22:05.001Z,97991.97
2022-09-30T21:24:31.624Z,97998.19
2022-09-30T21:26:58.184Z,97992.06
2022-09-30T21:29:24.787Z,97995.56
2022-09-30T21:31:51.437Z,98001.88
2022-09-30T21:34:18.110Z,97993.09
2022-09-30T21:36:45.387Z,98000.00
2022-09-30T21:39:12.326Z,97994.66
2022-09-30T21:41:40.665Z,98000.00
2022-09-30T21:44:07.368Z,98006.84
2022-09-30T21:46:35.730Z,98001.63
2022-09-30T21:49:15.181Z,98004.06
2022-09-30T21:51:41.870Z,98002.91
2022-09-30T21:54:10.203Z,98001.25
2022-09-30T21:56:37.170Z,97992.53
2022-09-30T21:59:04.825Z,97990.44
2022-09-30T22:01:32.396Z,97987.97
2022-09-30T22:03:59.252Z,97993.97
2022-09-30T22:06:26.065Z,97990.53
2022-09-30T22:08:52.609Z,97980.66
2022-09-30T22:11:25.141Z,97978.13
2022-09-30T22:13:55.253Z,97972.72
2022-09-30T22:16:27.357Z,97971.91
2022-09-30T22:18:54.913Z,97979.66
2022-09-30T22:21:21.932Z,97977.63
2022-09-30T22:23:49.678Z,97970.72
2022-09-30T22:26:19.039Z,97968.75
2022-09-30T22:28:47.627Z,97962.75
2022-09-30T22:31:29.145Z,97963.44
2022-09-30T22:34:20.064Z,97956.53
2022-09-30T22:37:06.188Z,97957.63
2022-09-30T22:39:33.270Z,97958.19
2022-09-30T22:42:00.333Z,97967.66
2022-09-30T22:44:29.574Z,97958.06
2022-09-30T22:46:58.159Z,97959.72
2022-09-30T22:49:25.438Z,97945.81
2022-09-30T22:51:55.890Z,97949.22
2022-09-30T22:54:24.227Z,97951.28
2022-09-30T22:56:51.149Z,97956.47
2022-09-30T22:59:22.304Z,97947.50
2022-09-30T23:01:49.348Z,97941.38
2022-09-30T23:04:17.536Z,97939.66
2022-09-30T23:06:48.362Z,97935.00
2022-09-30T23:09:16.245Z,97931.59
2022-09-30T23:11:43.237Z,97932.50
2022-09-30T23:14:10.171Z,97935.06
2022-09-30T23:16:36.890Z,97937.56
2022-09-30T23:19:03.573Z,97939.38
2022-09-30T23:21:30.241Z,97942.66
2022-09-30T23:23:56.978Z,97933.34
2022-09-30T23:26:26.137Z,97935.97
2022-09-30T23:29:00.525Z,97934.59
2022-09-30T23:31:28.190Z,97937.84
2022-09-30T23:33:57.575Z,97927.06
2022-09-30T23:36:30.130Z,97939.25
2022-09-30T23:39:08.315Z,97932.88
2022-09-30T23:41:35.514Z,97933.06
2022-09-30T23:44:02.694Z,97925.44
2022-09-30T23:46:29.331Z,97933.13
2022-09-30T23:48:56.031Z,97920.72
2022-09-30T23:51:22.606Z,97922.56
2022-09-30T23:53:49.723Z,97922.56
2022-09-30T23:56:17.964Z,97923.47
2022-09-30T23:58:47.258Z,97924.34
